createdAt,value
2018-12-21T00:00:57.329Z,9.60
2018-12-21T00:03:31.465Z,9.60
2018-12-21T00:06:05.501Z,9.60
2018-12-21T00:08:39.869Z,9.60
2018-12-21T00:11:13.945Z,9.60
2018-12-21T00:13:48.029Z,9.60
2018-12-21T00:16:22.111Z,9.60
2018-12-21T00:18:56.158Z,9.60
2018-12-21T00:21:30.196Z,9.60
2018-12-21T00:24:04.754Z,9.60
2018-12-21T00:26:38.816Z,9.60
2018-12-21T00:29:13.192Z,9.70
2018-12-21T00:31:52.409Z,9.70
2018-12-21T00:34:31.816Z,9.70
2018-12-21T00:37:11.291Z,9.70
2018-12-21T00:39:50.886Z,9.60
2018-12-21T00:42:31.205Z,9.70
2018-12-21T00:45:08.957Z,9.80
2018-12-21T00:47:43.234Z,9.80
2018-12-21T00:50:17.416Z,9.80
2018-12-21T00:52:51.609Z,9.90
2018-12-21T00:55:25.690Z,9.80
2018-12-21T00:57:59.750Z,9.80
2018-12-21T01:00:33.961Z,9.80
2018-12-21T01:03:08.025Z,9.80
2018-12-21T01:05:42.398Z,9.80
2018-12-21T01:08:16.466Z,9.90
2018-12-21T01:10:50.997Z,9.90
2018-12-21T01:13:25.185Z,9.90
2018-12-21T01:15:59.217Z,9.80
2018-12-21T01:18:33.286Z,9.90
2018-12-21T01:21:07.951Z,9.90
2018-12-21T01:23:42.076Z,9.90
2018-12-21T01:26:16.130Z,9.90
2018-12-21T01:28:50.194Z,9.90
2018-12-21T01:31:24.265Z,10.00
2018-12-21T01:33:58.340Z,10.00
2018-12-21T01:36:32.409Z,10.10
2018-12-21T01:39:07.101Z,10.00
2018-12-21T01:41:41.244Z,10.00
2018-12-21T01:44:15.376Z,10.10
2018-12-21T01:46:49.416Z,10.10
2018-12-21T01:49:23.478Z,10.10
2018-12-21T01:51:57.533Z,10.10
2018-12-21T01:54:32.656Z,10.10
2018-12-21T01:57:06.705Z,10.10
2018-12-21T01:59:40.769Z,10.10
2018-12-21T02:02:14.849Z,10.10
2018-12-21T02:04:48.944Z,10.10
2018-12-21T02:07:23.149Z,10.20
2018-12-21T02:09:57.215Z,10.20
2018-12-21T02:12:31.244Z,10.20
2018-12-21T02:15:05.581Z,10.10
2018-12-21T02:17:39.636Z,10.20
2018-12-21T02:20:13.700Z,10.20
2018-12-21T02:22:48.805Z,10.20
2018-12-21T02:25:22.888Z,10.20
2018-12-21T02:27:56.957Z,10.20
2018-12-21T02:30:31.043Z,10.20
2018-12-21T02:33:05.095Z,10.20
2018-12-21T02:35:39.182Z,10.20
2018-12-21T02:38:13.277Z,10.20
2018-12-21T02:40:47.383Z,10.20
2018-12-21T02:43:21.444Z,10.20
2018-12-21T02:45:55.517Z,10.20
2018-12-21T02:48:29.553Z,10.20
2018-12-21T02:51:03.751Z,10.20
2018-12-21T02:53:37.862Z,10.20
2018-12-21T02:56:11.945Z,10.20
2018-12-21T02:58:46.045Z,10.20
2018-12-21T03:01:20.117Z,10.30
2018-12-21T03:03:54.166Z,10.20
2018-12-21T03:06:28.406Z,10.30
2018-12-21T03:09:02.556Z,10.30
2018-12-21T03:11:36.636Z,10.20
2018-12-21T03:14:10.715Z,10.30
2018-12-21T03:16:44.791Z,10.30
2018-12-21T03:19:18.830Z,10.30
2018-12-21T03:21:52.901Z,10.30
2018-12-21T03:24:26.975Z,10.30
2018-12-21T03:27:01.194Z,10.30
2018-12-21T03:29:35.278Z,10.30
2018-12-21T03:32:09.313Z,10.30
2018-12-21T03:34:43.406Z,10.40
2018-12-21T03:37:17.449Z,10.40
2018-12-21T03:39:51.664Z,10.40
2018-12-21T03:42:25.726Z,10.30
2018-12-21T03:44:59.809Z,10.30
2018-12-21T03:47:33.878Z,10.30
2018-12-21T03:50:08.084Z,10.30
2018-12-21T03:52:42.179Z,10.30
2018-12-21T03:55:16.237Z,10.30
2018-12-21T03:57:50.299Z,10.30
2018-12-21T04:00:24.440Z,10.30
2018-12-21T04:02:58.481Z,10.40
2018-12-21T04:05:32.578Z,10.30
2018-12-21T04:08:06.621Z,10.30
2018-12-21T04:10:40.723Z,10.40
2018-12-21T04:13:14.791Z,10.30
2018-12-21T04:15:48.852Z,10.30
2018-12-21T04:18:22.936Z,10.40
2018-12-21T04:20:57.003Z,10.40
2018-12-21T04:23:31.203Z,10.50
2018-12-21T04:26:05.266Z,10.50
2018-12-21T04:28:39.336Z,10.60
2018-12-21T04:31:13.438Z,10.60
2018-12-21T04:33:47.496Z,10.50
2018-12-21T04:36:21.614Z,10.60
2018-12-21T04:38:55.681Z,10.50
2018-12-21T04:41:29.749Z,10.50
2018-12-21T04:44:03.953Z,10.50
2018-12-21T04:46:38.026Z,10.60
2018-12-21T04:49:12.107Z,10.70
2018-12-21T04:51:46.299Z,10.60
2018-12-21T04:54:20.349Z,10.60
2018-12-21T04:56:54.421Z,10.70
2018-12-21T04:59:28.585Z,10.70
2018-12-21T05:02:02.910Z,10.70
2018-12-21T05:04:36.953Z,10.70
2018-12-21T05:07:12.650Z,10.70
2018-12-21T05:09:47.978Z,10.70
2018-12-21T05:12:22.155Z,10.70
2018-12-21T05:14:56.266Z,10.80
2018-12-21T05:17:30.336Z,10.70
2018-12-21T05:20:04.848Z,10.80
2018-12-21T05:22:38.941Z,10.80
2018-12-21T05:25:13.002Z,11.00
2018-12-21T05:27:47.050Z,11.00
2018-12-21T05:30:21.117Z,10.90
2018-12-21T05:32:55.182Z,11.00
2018-12-21T05:35:29.289Z,10.90
2018-12-21T05:38:03.331Z,10.90
2018-12-21T05:40:37.402Z,10.90
2018-12-21T05:43:11.474Z,10.90
2018-12-21T05:45:45.547Z,10.90
2018-12-21T05:48:19.606Z,10.90
2018-12-21T05:50:53.690Z,10.90
2018-12-21T05:53:27.743Z,10.70
2018-12-21T05:56:01.819Z,10.70
2018-12-21T05:58:35.862Z,10.60
2018-12-21T06:01:09.929Z,10.60
2018-12-21T06:03:44.109Z,10.60
2018-12-21T06:06:18.210Z,10.50
2018-12-21T06:08:52.302Z,10.50
2018-12-21T06:11:26.506Z,10.50
2018-12-21T06:14:01.120Z,10.40
2018-12-21T06:16:35.467Z,10.40
2018-12-21T06:19:09.506Z,10.30
2018-12-21T06:21:43.568Z,10.30
2018-12-21T06:24:17.630Z,10.30
2018-12-21T06:26:51.709Z,10.30
2018-12-21T06:29:25.762Z,10.30
2018-12-21T06:31:59.873Z,10.20
2018-12-21T06:34:33.929Z,10.20
2018-12-21T06:37:08.021Z,10.20
2018-12-21T06:39:42.079Z,10.10
2018-12-21T06:42:16.153Z,10.20
2018-12-21T06:44:50.202Z,10.20
2018-12-21T06:47:24.281Z,10.20
2018-12-21T06:49:58.322Z,10.00
2018-12-21T06:52:32.389Z,10.10
2018-12-21T06:55:06.684Z,10.00
2018-12-21T06:57:40.778Z,10.00
2018-12-21T07:00:14.882Z,10.10
2018-12-21T07:02:48.961Z,10.10
2018-12-21T07:05:23.037Z,10.10
2018-12-21T07:07:57.218Z,10.10
2018-12-21T07:10:31.286Z,10.10
2018-12-21T07:13:05.638Z,10.10
2018-12-21T07:15:39.818Z,10.20
2018-12-21T07:18:13.909Z,10.20
2018-12-21T07:20:47.949Z,10.20
2018-12-21T07:23:27.102Z,10.20
2018-12-21T07:25:58.093Z,10.10
2018-12-21T07:28:32.164Z,10.20
2018-12-21T07:31:06.365Z,10.10
2018-12-21T07:33:40.460Z,10.10
2018-12-21T07:36:14.662Z,10.00
2018-12-21T07:38:48.705Z,10.10
2018-12-21T07:41:23.004Z,10.20
2018-12-21T07:43:57.046Z,10.20
2018-12-21T07:46:32.105Z,10.20
2018-12-21T07:49:06.225Z,10.20
2018-12-21T07:51:40.292Z,10.20
2018-12-21T07:54:14.333Z,10.20
2018-12-21T07:56:48.424Z,10.20
2018-12-21T07:59:22.553Z,10.10
2018-12-21T08:01:56.637Z,10.20
2018-12-21T08:04:30.699Z,10.20
2018-12-21T08:07:04.773Z,10.20
2018-12-21T08:09:38.832Z,10.20
2018-12-21T08:12:12.901Z,10.10
2018-12-21T08:14:46.949Z,10.10
2018-12-21T08:17:21.013Z,10.20
2018-12-21T08:19:55.088Z,10.20
2018-12-21T08:22:29.151Z,10.20
2018-12-21T08:25:03.374Z,10.20
2018-12-21T08:27:37.444Z,10.30
2018-12-21T08:30:11.547Z,10.30
2018-12-21T08:32:45.670Z,10.30
2018-12-21T08:35:19.736Z,10.30
2018-12-21T08:37:53.820Z,10.30
2018-12-21T08:40:27.897Z,10.30
2018-12-21T08:43:01.957Z,10.30
2018-12-21T08:45:36.025Z,10.20
2018-12-21T08:48:10.113Z,10.20
2018-12-21T08:50:44.174Z,10.30
2018-12-21T08:53:18.268Z,10.30
2018-12-21T08:55:52.305Z,10.30
2018-12-21T08:58:26.390Z,10.40
2018-12-21T09:01:00.445Z,10.40
2018-12-21T09:03:34.521Z,10.50
2018-12-21T09:06:08.569Z,10.50
2018-12-21T09:08:42.629Z,10.50
2018-12-21T09:11:16.701Z,10.50
2018-12-21T09:13:50.784Z,10.50
2018-12-21T09:16:24.830Z,10.50
2018-12-21T09:18:58.945Z,10.50
2018-12-21T09:21:32.998Z,10.50
2018-12-21T09:24:07.081Z,10.60
2018-12-21T09:26:41.148Z,10.70
2018-12-21T09:29:15.247Z,10.60
2018-12-21T09:31:49.342Z,10.70
2018-12-21T09:34:23.403Z,10.70
2018-12-21T09:36:57.502Z,10.70
2018-12-21T09:39:31.536Z,10.80
2018-12-21T09:42:05.609Z,10.80
2018-12-21T09:44:39.659Z,10.80
2018-12-21T09:47:13.728Z,10.90
2018-12-21T09:49:47.765Z,10.90
2018-12-21T09:52:21.828Z,10.90
2018-12-21T09:54:55.881Z,10.80
2018-12-21T09:57:29.957Z,10.90
2018-12-21T10:00:04.490Z,11.00
2018-12-21T10:02:38.677Z,11.00
2018-12-21T10:05:15.080Z,11.00
2018-12-21T10:07:49.170Z,11.00
2018-12-21T10:10:23.241Z,11.00
2018-12-21T10:12:57.435Z,11.00
2018-12-21T10:15:31.612Z,11.10
2018-12-21T10:18:05.695Z,11.10
2018-12-21T10:20:39.805Z,11.10
2018-12-21T10:23:13.862Z,11.10
2018-12-21T10:25:47.932Z,11.10
2018-12-21T10:28:22.006Z,11.10
2018-12-21T10:30:56.050Z,11.00
2018-12-21T10:33:30.149Z,11.00
2018-12-21T10:36:04.333Z,11.10
2018-12-21T10:38:38.399Z,11.10
2018-12-21T10:41:12.456Z,11.20
2018-12-21T10:43:46.549Z,11.30
2018-12-21T10:46:20.740Z,11.30
2018-12-21T10:48:54.810Z,11.40
2018-12-21T10:51:28.886Z,11.40
2018-12-21T10:54:02.966Z,11.40
2018-12-21T10:56:37.161Z,11.40
2018-12-21T10:59:11.238Z,11.50
2018-12-21T11:01:45.323Z,11.50
2018-12-21T11:04:19.389Z,11.50
2018-12-21T11:06:53.457Z,11.50
2018-12-21T11:09:27.528Z,11.50
2018-12-21T11:12:01.573Z,11.50
2018-12-21T11:14:35.705Z,11.50
2018-12-21T11:17:09.762Z,11.50
2018-12-21T11:19:43.864Z,11.50
2018-12-21T11:22:17.906Z,11.40
2018-12-21T11:24:51.984Z,11.50
2018-12-21T11:27:26.058Z,11.40
2018-12-21T11:30:00.119Z,11.40
2018-12-21T11:32:34.194Z,11.40
2018-12-21T11:35:08.325Z,11.40
2018-12-21T11:37:42.424Z,11.50
2018-12-21T11:40:16.478Z,11.50
2018-12-21T11:42:50.548Z,11.50
2018-12-21T11:45:24.598Z,11.50
2018-12-21T11:47:58.662Z,11.50
2018-12-21T11:50:32.690Z,11.40
2018-12-21T11:53:06.759Z,11.50
2018-12-21T11:55:40.817Z,11.40
2018-12-21T11:58:14.897Z,11.50
2018-12-21T12:00:49.080Z,11.50
2018-12-21T12:03:23.194Z,11.40
2018-12-21T12:05:57.263Z,11.40
2018-12-21T12:08:31.325Z,11.40
2018-12-21T12:11:05.371Z,11.50
2018-12-21T12:13:39.458Z,11.40
2018-12-21T12:16:13.498Z,11.50
2018-12-21T12:18:47.580Z,11.50
2018-12-21T12:21:21.631Z,11.50
2018-12-21T12:23:56.057Z,11.50
2018-12-21T12:26:30.105Z,11.40
2018-12-21T12:29:04.206Z,11.50
2018-12-21T12:31:43.073Z,11.50
2018-12-21T12:34:17.926Z,11.50
2018-12-21T12:36:52.157Z,11.60
2018-12-21T12:39:26.376Z,11.50
2018-12-21T12:42:00.453Z,11.50
2018-12-21T12:44:34.526Z,11.50
2018-12-21T12:47:08.627Z,11.50
2018-12-21T12:49:42.683Z,11.60
2018-12-21T12:52:16.808Z,11.60
2018-12-21T12:54:50.885Z,11.60
2018-12-21T12:57:24.906Z,11.70
2018-12-21T12:59:58.941Z,11.70
2018-12-21T13:02:32.968Z,11.70
2018-12-21T13:05:08.282Z,11.70
2018-12-21T13:07:42.293Z,11.80
2018-12-21T13:10:16.352Z,11.70
2018-12-21T13:12:50.410Z,11.70
2018-12-21T13:15:24.461Z,11.80
2018-12-21T13:17:58.478Z,11.70
2018-12-21T13:20:32.522Z,11.80
2018-12-21T13:23:06.584Z,11.70
2018-12-21T13:25:40.659Z,11.70
2018-12-21T13:28:14.697Z,11.80
2018-12-21T13:30:48.799Z,11.90
2018-12-21T13:33:22.838Z,11.90
2018-12-21T13:35:56.935Z,11.90
2018-12-21T13:38:30.990Z,11.90
2018-12-21T13:41:05.066Z,12.00
2018-12-21T13:43:39.076Z,12.00
2018-12-21T13:46:13.201Z,12.00
2018-12-21T13:48:47.273Z,12.10
2018-12-21T13:51:21.402Z,12.10
2018-12-21T13:53:55.437Z,12.20
2018-12-21T13:56:29.525Z,12.20
2018-12-21T13:59:03.583Z,12.20
2018-12-21T14:01:37.614Z,12.20
2018-12-21T14:04:11.733Z,12.30
2018-12-21T14:06:45.746Z,12.30
2018-12-21T14:09:19.799Z,12.30
2018-12-21T14:11:53.813Z,12.40
2018-12-21T14:14:27.875Z,12.40
2018-12-21T14:17:01.930Z,12.50
2018-12-21T14:19:36.009Z,12.50
2018-12-21T14:22:10.035Z,12.60
2018-12-21T14:24:44.326Z,12.60
2018-12-21T14:27:19.543Z,12.50
2018-12-21T14:29:53.569Z,12.60
2018-12-21T14:32:27.594Z,12.60
2018-12-21T14:35:01.642Z,12.60
2018-12-21T14:37:35.682Z,12.60
2018-12-21T14:40:09.905Z,12.70
2018-12-21T14:42:43.963Z,12.80
2018-12-21T14:45:17.994Z,12.80
2018-12-21T14:47:52.196Z,12.80
2018-12-21T14:50:26.274Z,12.80
2018-12-21T14:53:01.625Z,12.80
2018-12-21T14:55:37.642Z,12.70
2018-12-21T14:58:12.813Z,12.80
2018-12-21T15:00:46.973Z,12.80
2018-12-21T15:03:23.200Z,12.80
2018-12-21T15:05:57.413Z,12.80
2018-12-21T15:08:32.481Z,12.90
2018-12-21T15:11:07.689Z,12.90
2018-12-21T15:13:41.813Z,12.90
2018-12-21T15:16:15.977Z,12.90
2018-12-21T15:18:50.241Z,12.90
2018-12-21T15:21:24.362Z,12.90
2018-12-21T15:23:58.530Z,12.90
2018-12-21T15:26:32.746Z,12.90
2018-12-21T15:29:06.861Z,12.90
2018-12-21T15:31:41.042Z,13.00
2018-12-21T15:34:15.153Z,13.00
2018-12-21T15:36:49.290Z,13.10
2018-12-21T15:39:23.501Z,13.00
2018-12-21T15:41:57.520Z,13.10
2018-12-21T15:44:31.660Z,13.10
2018-12-21T15:47:09.076Z,13.10
2018-12-21T15:49:41.808Z,13.10
2018-12-21T15:52:15.829Z,13.20
2018-12-21T15:54:49.908Z,13.20
2018-12-21T15:57:24.946Z,13.10
2018-12-21T15:59:59.064Z,13.20
2018-12-21T16:02:33.093Z,13.20
2018-12-21T16:05:08.130Z,13.20
2018-12-21T16:07:42.271Z,13.20
2018-12-21T16:10:16.308Z,13.20
2018-12-21T16:12:50.413Z,13.20
2018-12-21T16:15:24.449Z,13.20
2018-12-21T16:17:58.491Z,13.20
2018-12-21T16:20:32.542Z,13.20
2018-12-21T16:23:06.670Z,13.20
2018-12-21T16:25:40.748Z,13.20
2018-12-21T16:28:15.805Z,13.20
2018-12-21T16:30:49.878Z,13.20
2018-12-21T16:33:23.893Z,13.30
2018-12-21T16:35:57.950Z,13.30
2018-12-21T16:38:31.969Z,13.30
2018-12-21T16:41:06.024Z,13.20
2018-12-21T16:43:40.045Z,13.20
2018-12-21T16:46:18.327Z,13.30
2018-12-21T16:48:52.367Z,13.30
2018-12-21T16:51:26.525Z,13.40
2018-12-21T16:54:00.609Z,13.30
2018-12-21T16:56:34.753Z,13.40
2018-12-21T16:59:08.785Z,13.40
2018-12-21T17:01:42.832Z,13.40
2018-12-21T17:04:16.858Z,13.40
2018-12-21T17:06:51.844Z,13.50
2018-12-21T17:09:25.920Z,13.50
2018-12-21T17:12:00.221Z,13.50
2018-12-21T17:14:34.262Z,13.50
2018-12-21T17:17:09.412Z,13.50
2018-12-21T17:19:43.458Z,13.50
2018-12-21T17:22:17.514Z,13.50
2018-12-21T17:24:51.563Z,13.50
2018-12-21T17:27:25.589Z,13.50
2018-12-21T17:29:59.632Z,13.50
2018-12-21T17:32:33.704Z,13.60
2018-12-21T17:35:09.013Z,13.50
2018-12-21T17:37:44.040Z,13.60
2018-12-21T17:40:18.090Z,13.60
2018-12-21T17:42:54.312Z,13.60
2018-12-21T17:45:28.400Z,13.60
2018-12-21T17:48:02.442Z,13.60
2018-12-21T17:50:36.478Z,13.70
2018-12-21T17:53:10.531Z,13.60
2018-12-21T17:55:44.677Z,13.60
2018-12-21T17:58:18.774Z,13.60
2018-12-21T18:00:52.821Z,13.60
2018-12-21T18:03:33.485Z,13.60
2018-12-21T18:06:07.662Z,13.60
2018-12-21T18:08:41.741Z,13.60
2018-12-21T18:11:15.833Z,13.60
2018-12-21T18:13:49.964Z,13.60
2018-12-21T18:16:24.011Z,13.60
2018-12-21T18:18:58.161Z,13.60
2018-12-21T18:21:38.094Z,13.60
2018-12-21T18:24:12.312Z,13.60
2018-12-21T18:26:46.374Z,13.60
2018-12-21T18:29:20.406Z,13.70
2018-12-21T18:31:59.718Z,13.70
2018-12-21T18:34:36.298Z,13.70
2018-12-21T18:37:10.568Z,13.60
2018-12-21T18:39:44.820Z,13.70
2018-12-21T18:42:18.849Z,13.60
2018-12-21T18:44:52.922Z,13.70
2018-12-21T18:47:27.040Z,13.60
2018-12-21T18:50:01.214Z,13.60
2018-12-21T18:52:35.271Z,13.50
2018-12-21T18:55:12.488Z,13.60
2018-12-21T18:57:46.513Z,13.60
2018-12-21T19:00:20.725Z,13.70
2018-12-21T19:02:54.773Z,13.70
2018-12-21T19:05:28.826Z,13.60
2018-12-21T19:08:02.880Z,13.70
2018-12-21T19:10:37.013Z,13.60
2018-12-21T19:13:11.050Z,13.70
2018-12-21T19:15:45.113Z,13.60
2018-12-21T19:18:19.338Z,13.60
2018-12-21T19:20:53.484Z,13.60
2018-12-21T19:23:27.564Z,13.70
2018-12-21T19:26:01.731Z,13.80
2018-12-21T19:28:35.749Z,13.70
2018-12-21T19:31:09.828Z,13.70
2018-12-21T19:33:43.901Z,13.70
2018-12-21T19:36:18.038Z,13.70
2018-12-21T19:38:52.108Z,13.60
2018-12-21T19:41:26.253Z,13.60
2018-12-21T19:44:00.289Z,13.60
2018-12-21T19:46:34.334Z,13.60
2018-12-21T19:49:08.416Z,13.60
2018-12-21T19:51:42.658Z,13.60
2018-12-21T19:54:19.898Z,13.60
2018-12-21T19:57:04.665Z,13.60
2018-12-21T19:59:38.466Z,13.60
2018-12-21T20:02:12.518Z,13.60
2018-12-21T20:04:46.553Z,13.60
2018-12-21T20:07:20.624Z,13.60
2018-12-21T20:09:54.674Z,13.60
2018-12-21T20:12:28.733Z,13.60
2018-12-21T20:15:02.846Z,13.50
2018-12-21T20:17:36.902Z,13.50
2018-12-21T20:20:11.606Z,13.30
2018-12-21T20:22:45.765Z,13.30
2018-12-21T20:25:19.806Z,13.30
2018-12-21T20:27:53.893Z,13.20
2018-12-21T20:30:27.983Z,13.30
2018-12-21T20:33:02.029Z,13.20
2018-12-21T20:35:36.296Z,13.20
2018-12-21T20:38:10.337Z,13.20
2018-12-21T20:40:44.500Z,13.20
2018-12-21T20:43:18.570Z,13.30
2018-12-21T20:45:52.724Z,13.10
2018-12-21T20:48:26.882Z,13.20
2018-12-21T20:51:01.638Z,13.20
2018-12-21T20:53:35.836Z,13.20
2018-12-21T20:56:09.854Z,13.20
2018-12-21T20:58:49.682Z,13.20
2018-12-21T21:01:23.700Z,13.30
2018-12-21T21:03:57.773Z,13.30
2018-12-21T21:06:31.923Z,13.30
2018-12-21T21:09:08.452Z,13.30
2018-12-21T21:11:43.617Z,13.30
2018-12-21T21:14:18.904Z,13.40
2018-12-21T21:16:53.055Z,13.30
2018-12-21T21:19:30.001Z,13.30
2018-12-21T21:22:04.172Z,13.30
2018-12-21T21:24:38.209Z,13.30
2018-12-21T21:27:12.253Z,13.30
2018-12-21T21:29:46.271Z,13.30
2018-12-21T21:32:20.347Z,13.30
2018-12-21T21:34:54.385Z,13.30
2018-12-21T21:37:28.437Z,13.30
2018-12-21T21:40:03.390Z,13.30
2018-12-21T21:42:37.450Z,13.40
2018-12-21T21:45:11.585Z,13.40
2018-12-21T21:47:46.755Z,13.40
2018-12-21T21:50:20.785Z,13.40
2018-12-21T21:52:54.865Z,13.50
2018-12-21T21:55:28.962Z,13.60
2018-12-21T21:58:02.985Z,13.60
2018-12-21T22:00:37.074Z,13.50
2018-12-21T22:03:11.177Z,13.50
2018-12-21T22:05:45.242Z,13.50
2018-12-21T22:08:19.418Z,13.50
2018-12-21T22:11:01.534Z,13.50
2018-12-21T22:13:29.580Z,13.50
2018-12-21T22:16:03.764Z,13.60
2018-12-21T22:18:37.797Z,13.50
2018-12-21T22:21:11.839Z,13.60
2018-12-21T22:23:45.858Z,13.50
2018-12-21T22:26:19.892Z,13.50
2018-12-21T22:28:53.930Z,13.50
2018-12-21T22:31:28.004Z,13.50
2018-12-21T22:34:02.022Z,13.60
2018-12-21T22:36:36.224Z,13.50
2018-12-21T22:39:10.262Z,13.40
2018-12-21T22:41:44.301Z,13.40
2018-12-21T22:44:18.353Z,13.40
2018-12-21T22:46:53.433Z,13.50
2018-12-21T22:49:27.489Z,13.50
2018-12-21T22:52:01.602Z,13.50
2018-12-21T22:54:35.658Z,13.50
2018-12-21T22:57:09.714Z,13.50
2018-12-21T22:59:44.672Z,13.40
2018-12-21T23:02:19.817Z,13.30
2018-12-21T23:04:53.966Z,13.40
2018-12-21T23:07:27.988Z,13.40
2018-12-21T23:10:02.030Z,13.40
2018-12-21T23:12:36.129Z,13.40
2018-12-21T23:15:10.196Z,13.40
2018-12-21T23:17:44.225Z,13.30
2018-12-21T23:20:18.265Z,13.20
2018-12-21T23:22:52.296Z,13.20
2018-12-21T23:25:26.994Z,13.30
2018-12-21T23:28:04.911Z,13.20
2018-12-21T23:30:37.294Z,13.20
2018-12-21T23:33:11.334Z,13.20
2018-12-21T23:35:45.390Z,13.20
2018-12-21T23:38:19.442Z,13.20
2018-12-21T23:40:53.465Z,13.30
2018-12-21T23:43:27.517Z,13.30
2018-12-21T23:46:01.748Z,13.30
2018-12-21T23:48:35.875Z,13.20
2018-12-21T23:51:10.585Z,13.20
2018-12-21T23:53:44.613Z,13.20
2018-12-21T23:56:18.673Z,13.20
2018-12-21T23:58:52.728Z,13.20
